This is the latest recevied weather packets stored in our database for station/object CYXE. If no packets are shown the sender has not sent any weather packets the latest 1 day(s).
| Time | Temp. | Humidity | Pressure | Rain* | Wind** | Luminosity | Snow |
|---|---|---|---|---|---|---|---|
| 1778074999 | -2.22° C | 74% | 1017.6 hPa | - | - | - | - |
| 1778074397 | -2.22° C | 74% | 1017.6 hPa | - | - | - | - |
| 1778070799 | -6.11° C | 85% | 1017.6 hPa | - | - | - | - |
| 1778069000 | -6.11° C | 85% | 1017.9 hPa | - | - | - | - |
| 1778068401 | -6.11° C | 85% | 1017.9 hPa | - | - | - | - |
| 1778067800 | -6.11° C | 85% | 1017.9 hPa | - | - | - | - |
| 1778064800 | -7.22° C | 92% | 1018.3 hPa | - | - | - | - |
| 1778063600 | -7.22° C | 92% | 1018.3 hPa | - | - | - | - |
| 1778063002 | -7.22° C | 92% | 1018.3 hPa | - | - | - | - |
| 1778062401 | -7.22° C | 92% | 1018.3 hPa | - | - | - | - |
| 1778060002 | -6.11° C | 79% | 1018.3 hPa | - | - | - | - |
| 1778059400 | -6.11° C | 79% | 1018.3 hPa | - | - | - | - |
| 1778058801 | -6.11° C | 79% | 1018.3 hPa | - | - | - | - |
| 1778057603 | -5° C | 79% | 1018.3 hPa | - | - | - | - |
| 1778056401 | -5° C | 79% | 1018.3 hPa | - | - | - | - |
| 1778054599 | -2.22° C | 68% | 1018.6 hPa | - | - | - | - |
| 1778052800 | -2.22° C | 68% | 1018.6 hPa | - | - | - | - |
| 1778052200 | -2.22° C | 68% | 1018.6 hPa | - | - | - | - |
| 1778051601 | -2.22° C | 68% | 1018.6 hPa | - | - | - | - |
| 1778050397 | -2.22° C | 63% | 1019 hPa | - | - | - | - |
| 1778048600 | -2.22° C | 63% | 1019 hPa | - | - | - | - |
| 1778046205 | -1.11° C | 50% | 1019 hPa | - | - | - | - |
| 1778045598 | -1.11° C | 50% | 1019 hPa | - | - | - | - |
| 1778045000 | -1.11° C | 50% | 1019 hPa | - | - | - | - |
| 1778044399 | -1.11° C | 50% | 1019 hPa | - | - | - | - |
* Rain since midnight (hover to see other rain measurements)
** Current wind speed in m/s (hover to see current wind gust speed)